This is the latest recevied weather packets stored in our database for station/object IR1ZYZ-3. If no packets are shown the sender has not sent any weather packets the latest 10 day(s).
| Time | Temp. | Humidity | Pressure | Rain* | Wind** | Luminosity | Snow |
|---|---|---|---|---|---|---|---|
| 1777607052 | 13.89° C | 57% | 1024.2 hPa | - | - | - | - |
| 1777606448 | 13.33° C | 57% | 1024.1 hPa | - | - | - | - |
| 1777605843 | 13.89° C | 57% | 1024.2 hPa | - | - | - | - |
| 1777605239 | 13.89° C | 56% | 1023.9 hPa | - | - | - | - |
| 1777604634 | 13.33° C | 58% | 1023.9 hPa | - | - | - | - |
| 1777604029 | 13.33° C | 57% | 1024.1 hPa | - | - | - | - |
| 1777603425 | 13.33° C | 58% | 1024 hPa | - | - | - | - |
| 1777602821 | 12.78° C | 60% | 1024 hPa | - | - | - | - |
| 1777602217 | 12.78° C | 62% | 1024 hPa | - | - | - | - |
| 1777601612 | 12.78° C | 61% | 1023.9 hPa | - | - | - | - |
| 1777601007 | 12.22° C | 64% | 1024 hPa | - | - | - | - |
| 1777600403 | 12.78° C | 62% | 1024 hPa | - | - | - | - |
| 1777599799 | 12.78° C | 62% | 1023.7 hPa | - | - | - | - |
| 1777599195 | 13.33° C | 60% | 1023.6 hPa | - | - | - | - |
| 1777598590 | 12.22° C | 63% | 1023.6 hPa | - | - | - | - |
| 1777597985 | 12.22° C | 64% | 1023.6 hPa | - | - | - | - |
| 1777597381 | 12.22° C | 64% | 1023.5 hPa | - | - | - | - |
| 1777596777 | 12.22° C | 63% | 1023.6 hPa | - | - | - | - |
| 1777596172 | 12.78° C | 62% | 1023.5 hPa | - | - | - | - |
| 1777595568 | 12.22° C | 63% | 1023.5 hPa | - | - | - | - |
| 1777594963 | 12.78° C | 63% | 1023.3 hPa | - | - | - | - |
| 1777594359 | 12.22° C | 64% | 1023.4 hPa | - | - | - | - |
| 1777593754 | 12.22° C | 64% | 1023.4 hPa | - | - | - | - |
| 1777593149 | 12.78° C | 62% | 1023.3 hPa | - | - | - | - |
| 1777592545 | 12.78° C | 61% | 1023.3 hPa | - | - | - | - |
* Rain since midnight (hover to see other rain measurements)
** Current wind speed in m/s (hover to see current wind gust speed)